createdAt,value
2023-02-06T00:01:50.341Z,16.55
2023-02-06T00:04:17.964Z,17.40
2023-02-06T00:06:45.511Z,17.87
2023-02-06T00:09:12.832Z,17.60
2023-02-06T00:11:40.178Z,18.00
2023-02-06T00:14:07.560Z,16.03
2023-02-06T00:16:35.830Z,18.07
2023-02-06T00:19:04.272Z,17.53
2023-02-06T00:21:31.648Z,18.07
2023-02-06T00:24:01.961Z,18.50
2023-02-06T00:26:31.252Z,16.77
2023-02-06T00:28:58.554Z,17.87
2023-02-06T00:31:25.897Z,16.23
2023-02-06T00:33:53.305Z,16.60
2023-02-06T00:36:20.576Z,16.37
2023-02-06T00:38:47.977Z,15.90
2023-02-06T00:41:15.369Z,17.53
2023-02-06T00:43:43.680Z,16.97
2023-02-06T00:46:10.979Z,17.77
2023-02-06T00:48:38.315Z,19.10
2023-02-06T00:51:05.890Z,19.60
2023-02-06T00:53:33.185Z,18.83
2023-02-06T00:56:00.348Z,22.90
2023-02-06T00:58:27.682Z,22.63
2023-02-06T01:00:54.922Z,20.93
2023-02-06T01:03:23.792Z,21.13
2023-02-06T01:05:51.116Z,20.30
2023-02-06T01:08:18.380Z,19.00
2023-02-06T01:10:46.009Z,19.90
2023-02-06T01:13:13.698Z,19.37
2023-02-06T01:15:41.741Z,20.37
2023-02-06T01:18:09.002Z,21.13
2023-02-06T01:20:40.037Z,21.53
2023-02-06T01:23:07.528Z,19.07
2023-02-06T01:25:35.090Z,19.30
2023-02-06T01:28:02.476Z,19.87
2023-02-06T01:30:33.022Z,20.27
2023-02-06T01:33:00.384Z,21.42
2023-02-06T01:35:29.661Z,18.97
2023-02-06T01:37:56.974Z,21.70
2023-02-06T01:40:24.361Z,21.73
2023-02-06T01:42:51.581Z,21.20
2023-02-06T01:45:21.795Z,21.87
2023-02-06T01:47:57.979Z,23.23
2023-02-06T01:50:25.303Z,21.97
2023-02-06T01:52:52.884Z,21.70
2023-02-06T01:55:20.197Z,20.90
2023-02-06T01:57:47.438Z,21.53
2023-02-06T02:00:18.013Z,25.07
2023-02-06T02:02:49.112Z,28.58
2023-02-06T02:05:19.333Z,28.40
2023-02-06T02:08:03.588Z,28.92
2023-02-06T02:10:33.801Z,28.20
2023-02-06T02:13:01.079Z,27.42
2023-02-06T02:16:06.267Z,28.50
2023-02-06T02:18:54.972Z,27.97
2023-02-06T02:22:14.732Z,27.27
2023-02-06T02:25:15.767Z,26.83
2023-02-06T02:28:27.782Z,27.30
2023-02-06T02:31:38.851Z,25.80
2023-02-06T02:34:32.082Z,25.70
2023-02-06T02:37:09.381Z,26.70
2023-02-06T02:39:56.753Z,26.93
2023-02-06T02:42:35.724Z,27.93
2023-02-06T02:45:50.782Z,26.42
2023-02-06T02:48:29.963Z,23.90
2023-02-06T02:50:58.711Z,25.00
2023-02-06T02:53:33.604Z,28.13
2023-02-06T02:56:01.521Z,28.33
2023-02-06T02:58:34.208Z,26.20
2023-02-06T03:01:09.340Z,25.17
2023-02-06T03:03:40.077Z,25.97
2023-02-06T03:09:14.266Z,22.35
2023-02-06T03:11:50.443Z,26.40
2023-02-06T03:14:49.868Z,24.13
2023-02-06T03:17:33.526Z,26.03
2023-02-06T03:20:06.685Z,22.47
2023-02-06T03:22:37.006Z,23.97
2023-02-06T03:25:12.152Z,24.23
2023-02-06T03:27:42.856Z,24.77
2023-02-06T03:30:14.216Z,25.43
2023-02-06T03:32:46.947Z,22.57
2023-02-06T03:35:22.486Z,23.93
2023-02-06T03:37:50.338Z,22.70
2023-02-06T03:40:18.648Z,24.43
2023-02-06T03:43:02.955Z,22.13
2023-02-06T03:45:45.608Z,22.03
2023-02-06T03:48:29.913Z,24.07
2023-02-06T03:51:03.389Z,22.50
2023-02-06T03:53:32.986Z,23.03
2023-02-06T03:56:10.084Z,22.17
2023-02-06T03:58:37.702Z,23.17
2023-02-06T04:01:07.404Z,24.37
2023-02-06T04:03:35.083Z,21.93
2023-02-06T04:06:02.350Z,24.97
2023-02-06T04:08:29.583Z,24.97
2023-02-06T04:10:56.865Z,24.60
2023-02-06T04:13:24.201Z,28.50
2023-02-06T04:15:51.614Z,28.40
2023-02-06T04:18:18.901Z,25.53
2023-02-06T04:20:46.147Z,23.33
2023-02-06T04:23:13.482Z,26.47
2023-02-06T04:25:40.727Z,22.67
2023-02-06T04:28:08.311Z,23.13
2023-02-06T04:30:35.507Z,25.77
2023-02-06T04:33:03.019Z,24.17
2023-02-06T04:35:30.232Z,22.90
2023-02-06T04:37:57.472Z,21.97
2023-02-06T04:40:24.767Z,22.07
2023-02-06T04:42:52.085Z,22.30
2023-02-06T04:45:19.393Z,22.40
2023-02-06T04:47:49.557Z,23.67
2023-02-06T04:50:20.136Z,24.50
2023-02-06T04:55:14.503Z,22.00
2023-02-06T04:57:42.395Z,23.33
2023-02-06T05:00:10.658Z,25.73
2023-02-06T05:02:39.776Z,24.13
2023-02-06T05:05:09.596Z,26.17
2023-02-06T05:07:37.172Z,24.97
2023-02-06T05:10:04.770Z,28.33
2023-02-06T05:12:34.726Z,26.97
2023-02-06T05:15:01.985Z,27.17
2023-02-06T05:17:29.207Z,26.27
2023-02-06T05:19:58.780Z,27.93
2023-02-06T05:22:26.445Z,27.20
2023-02-06T05:24:53.991Z,30.60
2023-02-06T05:27:21.271Z,32.37
2023-02-06T05:29:48.608Z,33.00
2023-02-06T05:32:15.927Z,31.97
2023-02-06T05:34:46.130Z,33.87
2023-02-06T05:37:13.593Z,31.38
2023-02-06T05:39:40.724Z,34.13
2023-02-06T05:42:08.021Z,33.60
2023-02-06T05:44:35.277Z,32.27
2023-02-06T05:47:02.652Z,33.43
2023-02-06T05:49:30.014Z,33.87
2023-02-06T05:51:57.338Z,31.60
2023-02-06T05:54:24.792Z,33.03
2023-02-06T05:56:52.307Z,32.87
2023-02-06T05:59:19.889Z,32.37
2023-02-06T06:01:47.189Z,32.77
2023-02-06T06:04:15.226Z,36.20
2023-02-06T06:06:42.444Z,31.97
2023-02-06T06:09:09.869Z,32.30
2023-02-06T06:11:37.385Z,32.50
2023-02-06T06:14:05.892Z,30.47
2023-02-06T06:16:33.610Z,30.97
2023-02-06T06:19:01.931Z,28.63
2023-02-06T06:21:29.413Z,29.43
2023-02-06T06:23:56.971Z,30.00
2023-02-06T06:26:24.303Z,31.80
2023-02-06T06:28:51.409Z,30.60
2023-02-06T06:31:18.818Z,30.73
2023-02-06T06:33:46.364Z,32.53
2023-02-06T06:36:15.432Z,31.90
2023-02-06T06:38:42.803Z,31.13
2023-02-06T06:41:10.064Z,30.73
2023-02-06T06:43:37.509Z,33.03
2023-02-06T06:46:05.358Z,31.67
2023-02-06T06:48:33.161Z,37.93
2023-02-06T06:51:00.439Z,34.87
2023-02-06T06:53:27.671Z,38.27
2023-02-06T06:55:55.008Z,38.17
2023-02-06T06:58:22.259Z,40.30
2023-02-06T07:00:49.451Z,41.93
2023-02-06T07:03:16.730Z,41.60
2023-02-06T07:05:44.140Z,44.23
2023-02-06T07:08:11.383Z,43.17
2023-02-06T07:10:38.659Z,44.57
2023-02-06T07:13:05.960Z,41.23
2023-02-06T07:15:33.165Z,43.80
2023-02-06T07:18:00.559Z,44.30
2023-02-06T07:20:28.029Z,46.90
2023-02-06T07:22:55.233Z,44.37
2023-02-06T07:25:22.609Z,41.87
2023-02-06T07:27:49.863Z,41.73
2023-02-06T07:30:17.254Z,42.53
2023-02-06T07:32:44.621Z,42.20
2023-02-06T07:35:15.325Z,44.80
2023-02-06T07:37:42.790Z,40.90
2023-02-06T07:40:11.000Z,42.27
2023-02-06T07:42:39.398Z,44.97
2023-02-06T07:45:17.600Z,39.63
2023-02-06T07:47:45.432Z,40.23
2023-02-06T07:50:12.868Z,42.37
2023-02-06T07:52:40.148Z,38.27
2023-02-06T07:55:07.616Z,39.70
2023-02-06T07:57:34.880Z,41.23
2023-02-06T08:00:02.393Z,38.57
2023-02-06T08:02:39.485Z,40.70
2023-02-06T08:05:07.375Z,37.70
2023-02-06T08:07:34.820Z,39.47
2023-02-06T08:10:02.280Z,36.63
2023-02-06T08:12:32.818Z,37.97
2023-02-06T08:15:00.014Z,37.17
2023-02-06T08:17:28.116Z,36.80
2023-02-06T08:19:55.481Z,36.57
2023-02-06T08:22:22.806Z,38.40
2023-02-06T08:24:50.047Z,37.43
2023-02-06T08:27:17.246Z,37.03
2023-02-06T08:29:44.531Z,35.43
2023-02-06T08:32:12.198Z,35.23
2023-02-06T08:34:40.255Z,33.37
2023-02-06T08:37:08.022Z,34.40
2023-02-06T08:39:35.309Z,33.10
2023-02-06T08:42:10.118Z,31.67
2023-02-06T08:44:37.450Z,35.75
2023-02-06T08:47:09.982Z,35.22
2023-02-06T08:49:38.416Z,36.33
2023-02-06T08:52:06.081Z,38.08
2023-02-06T08:54:38.392Z,34.13
2023-02-06T08:57:06.832Z,32.65
2023-02-06T08:59:34.969Z,33.75
2023-02-06T09:02:02.255Z,32.28
2023-02-06T09:04:37.468Z,32.30
2023-02-06T09:07:04.842Z,33.83
2023-02-06T09:09:32.031Z,33.63
2023-02-06T09:12:03.988Z,34.28
2023-02-06T09:14:32.267Z,31.90
2023-02-06T09:16:59.615Z,34.05
2023-02-06T09:19:27.181Z,31.95
2023-02-06T09:21:54.545Z,31.70
2023-02-06T09:24:22.320Z,34.92
2023-02-06T09:26:59.427Z,35.22
2023-02-06T09:29:29.714Z,35.67
2023-02-06T09:32:00.271Z,29.90
2023-02-06T09:34:28.490Z,28.13
2023-02-06T09:36:56.974Z,27.98
2023-02-06T09:39:25.010Z,27.45
2023-02-06T09:42:05.660Z,23.38
2023-02-06T09:47:29.296Z,19.90
2023-02-06T09:50:47.441Z,16.25
2023-02-06T09:54:06.323Z,16.92
2023-02-06T09:56:40.395Z,18.73
2023-02-06T09:59:35.463Z,16.90
2023-02-06T10:02:45.126Z,18.75
2023-02-06T10:05:35.332Z,19.00
2023-02-06T10:08:39.936Z,19.83
2023-02-06T10:11:58.681Z,22.08
2023-02-06T10:14:44.618Z,19.48
2023-02-06T10:17:49.252Z,19.60
2023-02-06T10:20:36.425Z,21.70
2023-02-06T10:23:19.162Z,21.13
2023-02-06T10:26:07.503Z,20.55
2023-02-06T10:28:35.492Z,20.15
2023-02-06T10:31:26.231Z,16.13
2023-02-06T10:34:26.937Z,12.15
2023-02-06T10:37:30.000Z,9.98
2023-02-06T10:40:21.307Z,10.00
2023-02-06T10:43:40.716Z,9.40
2023-02-06T10:46:25.876Z,10.13
2023-02-06T10:49:21.870Z,10.13
2023-02-06T10:52:22.881Z,11.02
2023-02-06T10:57:25.062Z,10.50
2023-02-06T10:59:56.450Z,8.73
2023-02-06T11:02:38.636Z,8.20
2023-02-06T11:05:19.430Z,8.03
2023-02-06T11:07:51.659Z,8.45
2023-02-06T11:10:23.987Z,7.97
2023-02-06T11:13:39.352Z,8.10
2023-02-06T11:16:14.254Z,7.77
2023-02-06T11:18:47.474Z,8.33
2023-02-06T11:21:36.540Z,8.00
2023-02-06T11:24:17.271Z,6.47
2023-02-06T11:27:00.525Z,7.72
2023-02-06T11:29:32.497Z,7.47
2023-02-06T11:32:03.741Z,7.00
2023-02-06T11:34:56.646Z,5.90
2023-02-06T11:37:37.550Z,7.57
2023-02-06T11:43:12.957Z,6.67
2023-02-06T11:45:41.307Z,8.90
2023-02-06T11:48:53.669Z,6.10
2023-02-06T11:51:21.510Z,5.43
2023-02-06T11:54:03.742Z,6.78
2023-02-06T11:56:52.228Z,6.35
2023-02-06T11:59:23.219Z,6.55
2023-02-06T12:01:51.147Z,7.07
2023-02-06T12:04:25.556Z,7.38
2023-02-06T12:07:16.653Z,7.30
2023-02-06T12:09:46.304Z,5.45
2023-02-06T12:12:37.185Z,6.35
2023-02-06T12:18:17.955Z,7.87
2023-02-06T12:21:10.864Z,7.93
2023-02-06T12:23:48.946Z,7.10
2023-02-06T12:26:20.762Z,8.52
2023-02-06T12:29:15.204Z,9.30
2023-02-06T12:32:07.476Z,8.93
2023-02-06T12:35:09.555Z,8.90
2023-02-06T12:37:49.311Z,9.70
2023-02-06T12:40:59.759Z,9.73
2023-02-06T12:43:28.701Z,10.20
2023-02-06T12:46:10.487Z,8.87
2023-02-06T12:48:48.118Z,8.33
2023-02-06T12:51:48.223Z,10.13
2023-02-06T12:54:30.768Z,10.20
2023-02-06T12:57:14.608Z,9.70
2023-02-06T13:00:18.713Z,8.40
2023-02-06T13:03:13.130Z,8.30
2023-02-06T13:05:47.441Z,9.93
2023-02-06T13:08:27.542Z,8.70
2023-02-06T13:11:06.349Z,9.43
2023-02-06T13:13:39.056Z,8.93
2023-02-06T13:16:10.186Z,9.00
2023-02-06T13:18:44.733Z,9.80
2023-02-06T13:21:32.868Z,10.57
2023-02-06T13:24:03.037Z,10.43
2023-02-06T13:26:56.374Z,8.80
2023-02-06T13:29:29.398Z,8.90
2023-02-06T13:32:12.265Z,9.47
2023-02-06T13:34:54.626Z,9.57
2023-02-06T13:37:40.888Z,7.43
2023-02-06T13:40:24.562Z,9.03
2023-02-06T13:43:10.217Z,10.07
2023-02-06T13:46:02.464Z,8.60
2023-02-06T13:48:47.801Z,8.73
2023-02-06T13:51:30.005Z,9.43
2023-02-06T13:54:25.137Z,11.30
2023-02-06T13:57:07.426Z,9.20
2023-02-06T13:59:46.335Z,7.13
2023-02-06T14:02:43.098Z,6.70
2023-02-06T14:05:23.208Z,8.00
2023-02-06T14:08:35.372Z,6.95
2023-02-06T14:11:32.244Z,7.43
2023-02-06T14:14:30.993Z,7.07
2023-02-06T14:17:21.140Z,6.80
2023-02-06T14:20:20.402Z,7.63
2023-02-06T14:23:14.587Z,8.33
2023-02-06T14:26:03.700Z,6.67
2023-02-06T14:28:59.851Z,7.00
2023-02-06T14:32:22.263Z,8.37
2023-02-06T14:35:11.016Z,7.27
2023-02-06T14:38:09.756Z,9.30
2023-02-06T14:40:43.176Z,7.33
2023-02-06T14:43:19.029Z,6.40
2023-02-06T14:46:06.947Z,8.40
2023-02-06T14:49:00.152Z,7.53
2023-02-06T14:51:34.605Z,7.67
2023-02-06T14:54:06.178Z,9.27
2023-02-06T14:56:39.056Z,7.97
2023-02-06T14:59:18.026Z,8.57
2023-02-06T15:01:50.099Z,7.07
2023-02-06T15:04:30.066Z,7.87
2023-02-06T15:07:04.364Z,9.30
2023-02-06T15:09:39.022Z,8.73
2023-02-06T15:12:25.198Z,8.00
2023-02-06T15:15:02.758Z,8.63
2023-02-06T15:17:34.531Z,9.03
2023-02-06T15:20:20.678Z,9.60
2023-02-06T15:22:48.040Z,7.80
2023-02-06T15:25:45.357Z,13.40
2023-02-06T15:28:20.110Z,10.37
2023-02-06T15:30:52.891Z,9.50
2023-02-06T15:33:27.739Z,9.50
2023-02-06T15:35:57.784Z,9.17
2023-02-06T15:38:27.320Z,9.95
2023-02-06T15:41:00.326Z,11.70
2023-02-06T15:43:30.687Z,9.20
2023-02-06T15:46:01.998Z,9.60
2023-02-06T15:48:52.772Z,9.50
2023-02-06T15:53:51.135Z,10.07
2023-02-06T15:56:21.328Z,11.23
2023-02-06T15:58:54.938Z,11.18
2023-02-06T16:01:22.333Z,11.17
2023-02-06T16:03:56.641Z,12.20
2023-02-06T16:06:24.223Z,11.30
2023-02-06T16:08:56.472Z,11.50
2023-02-06T16:11:50.781Z,13.03
2023-02-06T16:14:36.256Z,11.73
2023-02-06T16:17:15.380Z,13.07
2023-02-06T16:19:54.579Z,12.37
2023-02-06T16:22:21.704Z,10.87
2023-02-06T16:24:51.836Z,11.83
2023-02-06T16:27:28.053Z,11.98
2023-02-06T16:29:57.448Z,11.33
2023-02-06T16:32:30.370Z,11.10
2023-02-06T16:34:58.210Z,11.60
2023-02-06T16:37:29.408Z,11.73
2023-02-06T16:39:56.923Z,11.83
2023-02-06T16:42:32.361Z,11.10
2023-02-06T16:45:05.838Z,10.77
2023-02-06T16:47:33.094Z,12.07
2023-02-06T16:50:00.275Z,12.03
2023-02-06T16:52:32.556Z,14.07
2023-02-06T16:55:01.686Z,11.17
2023-02-06T16:57:35.309Z,13.07
2023-02-06T17:00:19.295Z,13.87
2023-02-06T17:02:48.146Z,13.30
2023-02-06T17:05:16.293Z,14.63
2023-02-06T17:07:49.089Z,14.40
2023-02-06T17:10:22.375Z,14.97
2023-02-06T17:12:50.354Z,14.50
2023-02-06T17:15:19.633Z,15.07
2023-02-06T17:17:49.386Z,13.70
2023-02-06T17:20:37.410Z,13.20
2023-02-06T17:23:05.414Z,14.20
2023-02-06T17:25:32.886Z,13.60
2023-02-06T17:28:01.408Z,15.00
2023-02-06T17:30:28.928Z,13.80
2023-02-06T17:32:56.568Z,15.80
2023-02-06T17:35:23.886Z,16.97
2023-02-06T17:37:51.774Z,15.57
2023-02-06T17:40:25.757Z,17.40
2023-02-06T17:42:54.031Z,14.57
2023-02-06T17:45:21.526Z,15.57
2023-02-06T17:47:49.544Z,16.47
2023-02-06T17:50:25.347Z,17.77
2023-02-06T17:52:56.255Z,17.80
2023-02-06T17:55:24.617Z,17.97
2023-02-06T17:57:52.568Z,19.80
2023-02-06T18:00:23.348Z,18.30
2023-02-06T18:02:53.328Z,19.47
2023-02-06T18:05:22.994Z,15.68
2023-02-06T18:07:51.746Z,17.50
2023-02-06T18:10:21.989Z,14.70
2023-02-06T18:12:49.418Z,15.35
2023-02-06T18:15:17.572Z,16.30
2023-02-06T18:17:45.118Z,15.80
2023-02-06T18:20:13.258Z,17.60
2023-02-06T18:22:41.357Z,16.03
2023-02-06T18:25:14.778Z,15.47
2023-02-06T18:27:45.870Z,16.50
2023-02-06T18:30:15.495Z,15.67
2023-02-06T18:32:42.994Z,18.17
2023-02-06T18:35:11.027Z,18.20
2023-02-06T18:37:38.648Z,19.30
2023-02-06T18:40:06.325Z,20.03
2023-02-06T18:42:52.027Z,20.17
2023-02-06T18:45:24.942Z,17.83
2023-02-06T18:47:52.562Z,23.13
2023-02-06T18:50:22.017Z,22.10
2023-02-06T18:52:50.081Z,22.73
2023-02-06T18:55:17.529Z,22.13
2023-02-06T18:57:44.858Z,21.67
2023-02-06T19:00:15.567Z,22.20
2023-02-06T19:02:42.960Z,21.63
2023-02-06T19:05:10.916Z,22.80
2023-02-06T19:07:40.672Z,18.47
2023-02-06T19:10:12.936Z,19.27
2023-02-06T19:12:40.417Z,19.73
2023-02-06T19:15:08.542Z,21.93
2023-02-06T19:17:36.080Z,20.07
2023-02-06T19:20:04.637Z,20.43
2023-02-06T19:22:35.392Z,23.73
2023-02-06T19:25:04.142Z,22.80
2023-02-06T19:27:31.560Z,18.97
2023-02-06T19:29:59.023Z,19.27
2023-02-06T19:32:29.021Z,18.87
2023-02-06T19:34:57.861Z,17.35
2023-02-06T19:37:29.843Z,17.70
2023-02-06T19:39:57.311Z,18.37
2023-02-06T19:42:24.650Z,18.43
2023-02-06T19:44:56.411Z,20.17
2023-02-06T19:47:23.898Z,19.33
2023-02-06T19:49:52.617Z,19.60
2023-02-06T19:52:20.652Z,18.53
2023-02-06T19:54:48.054Z,16.40
2023-02-06T19:57:16.048Z,18.33
2023-02-06T19:59:43.588Z,17.40
2023-02-06T20:02:15.124Z,19.00
2023-02-06T20:04:42.703Z,17.87
2023-02-06T20:07:09.999Z,17.87
2023-02-06T20:09:41.960Z,16.97
2023-02-06T20:12:12.440Z,19.60
2023-02-06T20:17:09.343Z,15.97
2023-02-06T20:19:37.056Z,14.37
2023-02-06T20:22:05.563Z,14.23
2023-02-06T20:24:33.381Z,16.90
2023-02-06T20:27:05.778Z,15.97
2023-02-06T20:29:37.405Z,17.17
2023-02-06T20:32:06.765Z,17.20
2023-02-06T20:34:35.347Z,16.10
2023-02-06T20:37:02.923Z,16.53
2023-02-06T20:39:34.920Z,16.03
2023-02-06T20:42:02.468Z,16.10
2023-02-06T20:44:29.838Z,16.63
2023-02-06T20:46:57.151Z,15.63
2023-02-06T20:49:27.532Z,16.60
2023-02-06T20:51:55.140Z,14.02
2023-02-06T20:54:23.978Z,16.83
2023-02-06T20:56:52.028Z,14.30
2023-02-06T20:59:20.640Z,15.83
2023-02-06T21:01:48.313Z,15.87
2023-02-06T21:04:18.064Z,15.33
2023-02-06T21:06:48.589Z,14.10
2023-02-06T21:09:18.743Z,13.98
2023-02-06T21:11:48.537Z,14.30
2023-02-06T21:14:16.856Z,13.82
2023-02-06T21:16:44.482Z,16.17
2023-02-06T21:19:15.315Z,13.93
2023-02-06T21:21:45.840Z,14.87
2023-02-06T21:24:14.774Z,14.87
2023-02-06T21:26:42.651Z,14.73
2023-02-06T21:29:12.450Z,16.30
2023-02-06T21:31:40.220Z,15.57
2023-02-06T21:34:21.310Z,16.80
2023-02-06T21:36:51.361Z,15.17
2023-02-06T21:39:22.945Z,15.70
2023-02-06T21:41:56.887Z,16.00
2023-02-06T21:44:26.435Z,17.10
2023-02-06T21:46:55.940Z,16.50
2023-02-06T21:49:24.109Z,15.10
2023-02-06T21:51:52.017Z,14.83
2023-02-06T21:54:20.103Z,17.17
2023-02-06T21:56:47.479Z,18.33
2023-02-06T21:59:14.826Z,19.83
2023-02-06T22:01:42.063Z,16.53
2023-02-06T22:04:11.205Z,20.00
2023-02-06T22:06:39.140Z,19.80
2023-02-06T22:09:09.297Z,18.63
2023-02-06T22:11:39.338Z,19.85
2023-02-06T22:14:12.403Z,18.85
2023-02-06T22:16:39.985Z,18.20
2023-02-06T22:19:07.988Z,18.47
2023-02-06T22:21:36.381Z,20.77
2023-02-06T22:24:06.854Z,23.90
2023-02-06T22:29:13.202Z,19.23
2023-02-06T22:31:43.141Z,17.70
2023-02-06T22:34:16.740Z,19.88
2023-02-06T22:36:44.758Z,18.67
2023-02-06T22:39:13.898Z,18.30
2023-02-06T22:41:44.375Z,18.47
2023-02-06T22:46:50.293Z,14.17
2023-02-06T22:49:22.120Z,16.47
2023-02-06T22:51:49.409Z,15.97
2023-02-06T22:54:17.110Z,20.37
2023-02-06T22:56:45.134Z,17.07
2023-02-06T22:59:18.499Z,16.60
2023-02-06T23:01:51.265Z,16.37
2023-02-06T23:04:25.274Z,16.93
2023-02-06T23:06:53.028Z,15.47
2023-02-06T23:09:28.959Z,16.13
2023-02-06T23:11:59.996Z,14.83
2023-02-06T23:14:30.119Z,14.77
2023-02-06T23:16:59.090Z,14.07
2023-02-06T23:19:26.595Z,15.07
2023-02-06T23:21:54.158Z,14.87
2023-02-06T23:24:21.457Z,16.17
2023-02-06T23:26:50.977Z,14.27
2023-02-06T23:29:22.540Z,13.27
2023-02-06T23:31:51.088Z,15.20
2023-02-06T23:34:20.332Z,15.67
2023-02-06T23:36:47.993Z,14.33
2023-02-06T23:39:15.500Z,15.30
2023-02-06T23:41:45.259Z,15.57
2023-02-06T23:44:12.889Z,13.90
2023-02-06T23:46:41.583Z,16.03
2023-02-06T23:49:09.250Z,15.10
2023-02-06T23:51:38.089Z,13.97
2023-02-06T23:54:07.341Z,14.80
2023-02-06T23:56:35.486Z,13.77
2023-02-06T23:59:05.265Z,13.67
